Impacts TAF Board INFO
FOR SITUATIONAL AWARENESS. NOT TO BE USED FOR FLIGHT PLANNING PURPOSES.
IDs:

KMIA - Miami Intl, FL, US

Issued at 1720 UTC 15 Aug 2018
Updated at 2048 UTC 15 Aug 2018
Potential Impact None Slight Moderate High
Time1953Z 15/21Z 15/22Z 15/23Z 16/00Z 16/01Z 16/02Z 16/03Z 16/04Z 16/05Z 16/06Z 16/07Z 16/08Z 16/09Z>>
Type OBS PRVL PRVL PRVL PRVL PRVL PRVL PRVL PRVL PRVL PRVL PRVL PRVL PRVL
VIS 10 >6 >6 >6 >6 >6 >6 >6 >6 >6 >6 >6 >6 >6
CIG -- -- -- -- -- -- -- -- -- -- -- -- -- --
Cover SCT SCT SCT SCT SCT SCT SCT SCT SCT SCT SCT SCT SCT SCT
FltCat VFR VFR VFR VFR VFR VFR VFR VFR VFR VFR VFR VFR VFR VFR
WX -- -- -- -- -- -- -- -- -- -- -- -- -- --
WDir 130 120 120 120 120 120 100 100 100 100 100 100 100 100
WSpd 12 10 10 10 10 10 6 6 6 6 6 6 6 6
WGst -- -- -- -- -- -- -- -- -- -- -- -- -- --

Raw TAF
KMIA 151720Z 1518/1624 12010KT P6SM SCT030 SCT200
  FM160200 10006KT P6SM FEW040 SCT250
  FM161400 12012KT P6SM SCT035


Raw METAR
KMIA 151953Z 13012KT 10SM SCT032 SCT300 32/23 A3007 RMK AO2 SLP182 T03170228
KMIA 151853Z 13012KT 10SM SCT036 BKN300 32/24 A3008 RMK AO2 SLP187 T03170244
KMIA 151753Z 13012G19KT 10SM SCT034 SCT280 32/23 A3009 RMK AO2 SLP190 TCU DSNT NE-E T03220233 10328 20283 58005

METAR Board
Radar Display
Forecast Discussion

FOR SITUATIONAL AWARENESS. NOT TO BE USED FOR FLIGHT PLANNING PURPOSES.